createdAt,value
2023-02-18T00:00:32.362Z,6.75
2023-02-18T00:02:58.850Z,6.70
2023-02-18T00:05:25.217Z,6.57
2023-02-18T00:07:51.495Z,7.28
2023-02-18T00:10:17.816Z,6.65
2023-02-18T00:12:44.153Z,6.22
2023-02-18T00:15:10.509Z,6.70
2023-02-18T00:17:36.813Z,6.25
2023-02-18T00:20:03.141Z,6.18
2023-02-18T00:22:29.574Z,6.38
2023-02-18T00:24:56.041Z,6.55
2023-02-18T00:27:22.584Z,6.45
2023-02-18T00:29:49.490Z,6.15
2023-02-18T00:32:15.939Z,6.03
2023-02-18T00:34:42.260Z,6.13
2023-02-18T00:37:08.966Z,5.70
2023-02-18T00:39:35.351Z,6.00
2023-02-18T00:42:01.674Z,5.50
2023-02-18T00:44:28.034Z,6.35
2023-02-18T00:46:54.599Z,5.78
2023-02-18T00:49:20.922Z,5.15
2023-02-18T00:51:47.330Z,5.70
2023-02-18T00:54:13.681Z,5.68
2023-02-18T00:56:40.124Z,5.20
2023-02-18T00:59:06.635Z,5.07
2023-02-18T01:01:32.987Z,5.50
2023-02-18T01:03:59.389Z,4.97
2023-02-18T01:06:25.776Z,5.03
2023-02-18T01:08:52.155Z,4.88
2023-02-18T01:11:18.505Z,5.25
2023-02-18T01:13:44.894Z,5.50
2023-02-18T01:16:11.580Z,4.55
2023-02-18T01:18:38.550Z,5.28
2023-02-18T01:21:04.898Z,5.45
2023-02-18T01:23:31.450Z,5.38
2023-02-18T01:25:57.805Z,5.00
2023-02-18T01:28:24.209Z,5.00
2023-02-18T01:30:52.200Z,5.10
2023-02-18T01:33:18.853Z,4.43
2023-02-18T01:35:45.284Z,4.85
2023-02-18T01:38:12.185Z,5.10
2023-02-18T01:40:38.531Z,4.80
2023-02-18T01:43:04.968Z,5.40
2023-02-18T01:45:31.456Z,4.07
2023-02-18T01:47:57.845Z,4.22
2023-02-18T01:50:24.187Z,4.95
2023-02-18T01:52:50.594Z,4.43
2023-02-18T01:55:16.951Z,5.28
2023-02-18T01:57:43.395Z,4.30
2023-02-18T02:00:09.957Z,4.38
2023-02-18T02:02:37.698Z,4.63
2023-02-18T02:05:05.519Z,4.40
2023-02-18T02:07:31.896Z,4.00
2023-02-18T02:09:58.642Z,4.72
2023-02-18T02:12:25.471Z,4.47
2023-02-18T02:14:51.810Z,4.05
2023-02-18T02:17:18.618Z,4.03
2023-02-18T02:19:45.597Z,4.10
2023-02-18T02:22:12.122Z,3.95
2023-02-18T02:24:39.044Z,4.47
2023-02-18T02:27:07.013Z,4.95
2023-02-18T02:29:33.989Z,4.10
2023-02-18T02:32:00.409Z,4.72
2023-02-18T02:34:26.810Z,3.85
2023-02-18T02:36:53.266Z,4.15
2023-02-18T02:39:19.545Z,3.78
2023-02-18T02:41:46.503Z,3.88
2023-02-18T02:44:12.868Z,4.20
2023-02-18T02:46:39.295Z,3.85
2023-02-18T02:49:05.725Z,4.05
2023-02-18T02:51:32.271Z,3.97
2023-02-18T02:53:59.030Z,3.78
2023-02-18T02:56:25.507Z,3.80
2023-02-18T02:58:51.901Z,3.85
2023-02-18T03:01:18.319Z,3.80
2023-02-18T03:03:45.352Z,4.25
2023-02-18T03:06:12.078Z,3.90
2023-02-18T03:08:38.529Z,3.60
2023-02-18T03:11:05.063Z,3.83
2023-02-18T03:13:31.716Z,3.63
2023-02-18T03:15:58.558Z,3.70
2023-02-18T03:18:24.917Z,3.53
2023-02-18T03:20:51.193Z,3.60
2023-02-18T03:23:18.006Z,3.60
2023-02-18T03:25:44.796Z,3.70
2023-02-18T03:28:11.401Z,3.55
2023-02-18T03:30:37.761Z,3.38
2023-02-18T03:33:04.142Z,3.72
2023-02-18T03:35:30.470Z,3.30
2023-02-18T03:37:56.806Z,3.15
2023-02-18T03:40:23.308Z,3.28
2023-02-18T03:42:49.671Z,3.55
2023-02-18T03:45:16.079Z,3.45
2023-02-18T03:47:42.510Z,4.03
2023-02-18T03:50:08.897Z,3.25
2023-02-18T03:52:35.459Z,3.20
2023-02-18T03:55:01.805Z,3.42
2023-02-18T03:57:28.176Z,3.78
2023-02-18T03:59:54.656Z,3.03
2023-02-18T04:02:21.005Z,2.75
2023-02-18T04:04:47.457Z,3.67
2023-02-18T04:07:13.808Z,3.22
2023-02-18T04:09:40.194Z,3.65
2023-02-18T04:12:07.040Z,3.10
2023-02-18T04:14:33.356Z,3.50
2023-02-18T04:17:00.273Z,3.78
2023-02-18T04:19:26.888Z,3.30
2023-02-18T04:21:53.387Z,3.05
2023-02-18T04:24:19.757Z,2.95
2023-02-18T04:26:46.144Z,3.10
2023-02-18T04:29:12.507Z,2.83
2023-02-18T04:31:39.477Z,3.20
2023-02-18T04:34:05.918Z,3.15
2023-02-18T04:36:32.254Z,2.90
2023-02-18T04:38:58.898Z,3.60
2023-02-18T04:41:25.240Z,3.33
2023-02-18T04:43:51.783Z,2.90
2023-02-18T04:46:18.202Z,3.10
2023-02-18T04:48:44.817Z,2.97
2023-02-18T04:51:11.208Z,3.20
2023-02-18T04:53:37.620Z,2.80
2023-02-18T04:56:03.992Z,2.58
2023-02-18T04:58:30.789Z,2.53
2023-02-18T05:00:57.263Z,2.90
2023-02-18T05:03:23.995Z,2.60
2023-02-18T05:05:50.769Z,3.05
2023-02-18T05:08:17.058Z,3.38
2023-02-18T05:10:44.069Z,2.97
2023-02-18T05:13:10.432Z,2.70
2023-02-18T05:15:37.062Z,2.55
2023-02-18T05:18:03.637Z,2.92
2023-02-18T05:20:30.066Z,2.45
2023-02-18T05:22:56.876Z,2.95
2023-02-18T05:25:23.605Z,2.22
2023-02-18T05:27:49.979Z,2.92
2023-02-18T05:30:16.503Z,2.95
2023-02-18T05:32:43.082Z,3.17
2023-02-18T05:35:09.423Z,2.58
2023-02-18T05:37:35.754Z,2.80
2023-02-18T05:40:02.105Z,2.70
2023-02-18T05:42:28.885Z,3.00
2023-02-18T05:44:55.751Z,2.42
2023-02-18T05:47:22.235Z,2.90
2023-02-18T05:49:48.648Z,2.45
2023-02-18T05:52:14.990Z,2.47
2023-02-18T05:54:41.306Z,2.35
2023-02-18T05:57:07.613Z,2.70
2023-02-18T05:59:34.213Z,2.65
2023-02-18T06:02:00.613Z,1.80
2023-02-18T06:04:26.961Z,2.28
2023-02-18T06:06:53.751Z,2.10
2023-02-18T06:09:20.100Z,2.63
2023-02-18T06:11:47.626Z,2.40
2023-02-18T06:14:14.050Z,2.25
2023-02-18T06:16:40.416Z,2.17
2023-02-18T06:19:06.974Z,2.58
2023-02-18T06:21:33.556Z,2.33
2023-02-18T06:24:00.121Z,2.95
2023-02-18T06:26:27.123Z,2.40
2023-02-18T06:28:53.505Z,2.50
2023-02-18T06:31:20.184Z,2.33
2023-02-18T06:33:46.686Z,2.50
2023-02-18T06:36:13.217Z,2.30
2023-02-18T06:38:39.642Z,2.53
2023-02-18T06:41:05.974Z,2.08
2023-02-18T06:43:32.493Z,2.70
2023-02-18T06:45:58.768Z,2.70
2023-02-18T06:48:25.149Z,2.17
2023-02-18T06:50:51.660Z,2.22
2023-02-18T06:53:18.094Z,2.10
2023-02-18T06:55:44.445Z,2.10
2023-02-18T06:58:10.887Z,2.40
2023-02-18T07:00:37.386Z,3.05
2023-02-18T07:03:03.962Z,2.20
2023-02-18T07:05:30.301Z,2.50
2023-02-18T07:07:56.624Z,2.00
2023-02-18T07:10:23.540Z,2.10
2023-02-18T07:12:49.894Z,2.70
2023-02-18T07:15:16.707Z,2.50
2023-02-18T07:17:43.134Z,2.30
2023-02-18T07:20:09.510Z,2.60
2023-02-18T07:22:35.900Z,2.50
2023-02-18T07:25:02.790Z,2.00
2023-02-18T07:27:29.554Z,2.28
2023-02-18T07:29:55.930Z,2.42
2023-02-18T07:32:22.962Z,1.92
2023-02-18T07:34:49.430Z,2.40
2023-02-18T07:37:16.169Z,2.22
2023-02-18T07:39:43.056Z,1.85
2023-02-18T07:42:09.465Z,2.20
2023-02-18T07:44:35.824Z,2.08
2023-02-18T07:47:02.199Z,2.08
2023-02-18T07:49:29.057Z,2.40
2023-02-18T07:51:55.438Z,2.28
2023-02-18T07:54:22.157Z,2.33
2023-02-18T07:56:48.537Z,2.10
2023-02-18T07:59:14.892Z,2.03
2023-02-18T08:01:42.593Z,2.00
2023-02-18T08:04:10.502Z,1.90
2023-02-18T08:06:36.848Z,2.30
2023-02-18T08:09:03.192Z,2.33
2023-02-18T08:11:29.558Z,1.92
2023-02-18T08:13:55.991Z,2.50
2023-02-18T08:16:22.657Z,1.83
2023-02-18T08:18:48.991Z,2.30
2023-02-18T08:21:15.393Z,1.92
2023-02-18T08:23:41.840Z,1.98
2023-02-18T08:26:08.470Z,2.03
2023-02-18T08:28:35.730Z,2.30
2023-02-18T08:31:02.098Z,2.00
2023-02-18T08:33:28.567Z,2.15
2023-02-18T08:35:55.074Z,1.80
2023-02-18T08:38:21.659Z,2.30
2023-02-18T08:40:48.034Z,1.92
2023-02-18T08:43:14.962Z,2.45
2023-02-18T08:45:41.690Z,1.70
2023-02-18T08:48:17.854Z,1.95
2023-02-18T08:50:46.525Z,2.10
2023-02-18T08:53:12.906Z,2.17
2023-02-18T08:55:39.237Z,13.15
2023-02-18T08:58:05.609Z,15.13
2023-02-18T09:00:31.962Z,24.55
2023-02-18T09:02:58.261Z,27.95
2023-02-18T09:05:25.614Z,27.55
2023-02-18T09:07:52.017Z,27.00
2023-02-18T09:10:18.594Z,32.33
2023-02-18T09:12:45.473Z,31.45
2023-02-18T09:15:11.859Z,32.20
2023-02-18T09:17:38.617Z,32.53
2023-02-18T09:20:05.806Z,55.90
2023-02-18T09:22:32.172Z,135.80
2023-02-18T09:24:58.500Z,182.32
2023-02-18T09:27:24.925Z,178.02
2023-02-18T09:29:51.515Z,171.45
2023-02-18T09:32:32.377Z,159.70
2023-02-18T09:35:00.250Z,144.95
2023-02-18T09:37:27.305Z,132.35
2023-02-18T09:39:53.679Z,131.20
2023-02-18T09:42:21.833Z,125.47
2023-02-18T09:44:54.958Z,116.25
2023-02-18T09:47:21.308Z,217.95
2023-02-18T09:49:48.051Z,309.73
2023-02-18T09:52:14.418Z,238.50
2023-02-18T09:54:40.876Z,209.85
2023-02-18T09:57:07.202Z,191.57
2023-02-18T09:59:33.596Z,184.80
2023-02-18T10:02:02.223Z,174.90
2023-02-18T10:04:29.121Z,208.43
2023-02-18T10:06:55.761Z,276.27
2023-02-18T10:09:22.319Z,293.02
2023-02-18T10:11:48.861Z,284.40
2023-02-18T10:14:15.362Z,277.17
2023-02-18T10:16:41.772Z,266.00
2023-02-18T10:19:08.253Z,256.35
2023-02-18T10:21:34.606Z,240.10
2023-02-18T10:24:01.173Z,227.25
2023-02-18T10:26:27.578Z,215.25
2023-02-18T10:28:53.968Z,224.38
2023-02-18T10:31:20.552Z,238.15
2023-02-18T10:33:47.207Z,269.65
2023-02-18T10:36:13.525Z,275.30
2023-02-18T10:38:40.109Z,267.23
2023-02-18T10:41:06.885Z,248.93
2023-02-18T10:43:33.542Z,231.80
2023-02-18T10:46:00.120Z,219.98
2023-02-18T10:48:26.831Z,206.82
2023-02-18T10:50:54.302Z,204.65
2023-02-18T10:53:20.638Z,270.95
2023-02-18T10:55:46.922Z,298.27
2023-02-18T10:58:13.208Z,276.52
2023-02-18T11:00:39.639Z,263.60
2023-02-18T11:03:08.052Z,251.60
2023-02-18T11:05:35.233Z,234.98
2023-02-18T11:08:02.117Z,228.27
2023-02-18T11:10:28.476Z,212.05
2023-02-18T11:12:54.797Z,206.07
2023-02-18T11:15:21.450Z,199.18
2023-02-18T11:17:48.110Z,191.20
2023-02-18T11:20:15.062Z,184.63
2023-02-18T11:22:41.698Z,180.07
2023-02-18T11:25:08.551Z,169.38
2023-02-18T11:27:35.304Z,165.75
2023-02-18T11:30:02.254Z,162.15
2023-02-18T11:32:29.044Z,251.95
2023-02-18T11:34:55.833Z,305.52
2023-02-18T11:37:22.538Z,269.80
2023-02-18T11:39:48.823Z,257.10
2023-02-18T11:42:15.563Z,240.93
2023-02-18T11:44:42.350Z,231.60
2023-02-18T11:47:08.999Z,216.13
2023-02-18T11:49:35.376Z,207.77
2023-02-18T11:52:01.808Z,199.82
2023-02-18T11:54:28.150Z,196.02
2023-02-18T11:56:55.114Z,182.27
2023-02-18T11:59:22.041Z,177.18
2023-02-18T12:01:48.765Z,163.75
2023-02-18T12:04:15.658Z,163.80
2023-02-18T12:06:41.966Z,155.13
2023-02-18T12:09:08.374Z,144.52
2023-02-18T12:11:34.972Z,145.85
2023-02-18T12:14:01.383Z,139.30
2023-02-18T12:16:27.873Z,132.30
2023-02-18T12:18:54.688Z,128.23
2023-02-18T12:21:21.428Z,125.70
2023-02-18T12:23:48.218Z,122.10
2023-02-18T12:26:14.561Z,117.97
2023-02-18T12:28:40.942Z,111.38
2023-02-18T12:31:08.495Z,109.90
2023-02-18T12:33:37.247Z,102.22
2023-02-18T12:36:03.774Z,101.25
2023-02-18T12:38:30.162Z,95.30
2023-02-18T12:40:56.819Z,93.55
2023-02-18T12:43:23.817Z,89.07
2023-02-18T12:45:50.662Z,85.53
2023-02-18T12:48:17.669Z,83.00
2023-02-18T12:50:44.422Z,79.50
2023-02-18T12:53:10.870Z,76.10
2023-02-18T12:55:37.206Z,75.45
2023-02-18T12:58:03.518Z,72.38
2023-02-18T13:00:31.112Z,71.95
2023-02-18T13:02:58.708Z,69.80
2023-02-18T13:05:25.177Z,64.60
2023-02-18T13:07:52.473Z,63.90
2023-02-18T13:10:18.938Z,59.80
2023-02-18T13:12:45.241Z,57.55
2023-02-18T13:15:12.405Z,129.13
2023-02-18T13:17:38.949Z,136.13
2023-02-18T13:20:05.298Z,108.18
2023-02-18T13:22:31.758Z,117.43
2023-02-18T13:24:58.087Z,110.15
2023-02-18T13:27:24.744Z,104.90
2023-02-18T13:29:51.277Z,98.97
2023-02-18T13:32:19.352Z,96.90
2023-02-18T13:34:45.867Z,91.40
2023-02-18T13:37:12.284Z,87.30
2023-02-18T13:39:39.159Z,85.55
2023-02-18T13:42:06.013Z,81.63
2023-02-18T13:44:32.306Z,78.90
2023-02-18T13:46:58.787Z,82.80
2023-02-18T13:49:25.353Z,255.63
2023-02-18T13:51:52.062Z,227.95
2023-02-18T13:54:18.742Z,212.48
2023-02-18T13:56:45.989Z,200.73
2023-02-18T13:59:12.770Z,187.07
2023-02-18T14:01:39.825Z,176.80
2023-02-18T14:04:07.395Z,166.95
2023-02-18T14:06:33.774Z,159.63
2023-02-18T14:09:00.127Z,147.68
2023-02-18T14:11:26.553Z,181.85
2023-02-18T14:13:53.068Z,305.75
2023-02-18T14:16:19.928Z,250.32
2023-02-18T14:18:46.264Z,240.80
2023-02-18T14:21:13.319Z,206.40
2023-02-18T14:23:40.342Z,350.98
2023-02-18T14:26:06.733Z,339.42
2023-02-18T14:28:33.142Z,323.20
2023-02-18T14:31:00.090Z,302.88
2023-02-18T14:33:26.933Z,280.67
2023-02-18T14:35:53.264Z,267.67
2023-02-18T14:38:19.770Z,230.65
2023-02-18T14:40:46.750Z,217.82
2023-02-18T14:43:13.076Z,206.52
2023-02-18T14:45:40.437Z,190.18
2023-02-18T14:48:06.829Z,182.05
2023-02-18T14:50:33.192Z,174.05
2023-02-18T14:53:00.058Z,159.13
2023-02-18T14:55:26.519Z,148.25
2023-02-18T14:57:53.381Z,144.55
2023-02-18T15:00:20.369Z,139.35
2023-02-18T15:02:46.726Z,134.57
2023-02-18T15:05:13.498Z,125.05
2023-02-18T15:07:39.785Z,122.03
2023-02-18T15:10:06.136Z,113.65
2023-02-18T15:12:32.493Z,108.50
2023-02-18T15:15:00.174Z,104.65
2023-02-18T15:17:26.547Z,97.68
2023-02-18T15:19:52.886Z,90.93
2023-02-18T15:22:19.889Z,87.13
2023-02-18T15:24:46.344Z,85.72
2023-02-18T15:27:12.691Z,80.53
2023-02-18T15:29:39.204Z,79.90
2023-02-18T15:32:06.260Z,75.78
2023-02-18T15:34:33.263Z,72.85
2023-02-18T15:36:59.561Z,155.75
2023-02-18T15:39:25.952Z,526.92
2023-02-18T15:41:52.848Z,340.33
2023-02-18T15:44:19.275Z,306.17
2023-02-18T15:46:46.828Z,265.00
2023-02-18T15:49:13.138Z,252.75
2023-02-18T15:51:39.480Z,234.43
2023-02-18T15:54:07.033Z,222.65
2023-02-18T15:56:33.831Z,216.85
2023-02-18T15:59:00.293Z,206.43
2023-02-18T16:01:27.411Z,192.05
2023-02-18T16:03:53.762Z,186.60
2023-02-18T16:06:20.166Z,174.63
2023-02-18T16:08:46.965Z,163.32
2023-02-18T16:11:13.307Z,158.25
2023-02-18T16:13:39.647Z,148.05
2023-02-18T16:16:06.097Z,136.82
2023-02-18T16:18:32.760Z,129.93
2023-02-18T16:20:59.094Z,163.88
2023-02-18T16:23:26.518Z,312.63
2023-02-18T16:25:52.894Z,314.20
2023-02-18T16:28:19.589Z,290.48
2023-02-18T16:30:46.073Z,277.45
2023-02-18T16:33:12.686Z,265.52
2023-02-18T16:35:49.579Z,249.57
2023-02-18T16:38:17.242Z,244.55
2023-02-18T16:40:43.743Z,231.77
2023-02-18T16:43:10.044Z,223.13
2023-02-18T16:45:36.783Z,216.48
2023-02-18T16:48:03.174Z,206.65
2023-02-18T16:50:29.527Z,200.45
2023-02-18T16:52:56.010Z,190.80
2023-02-18T16:55:22.449Z,187.07
2023-02-18T16:57:48.846Z,178.90
2023-02-18T17:00:16.015Z,176.50
2023-02-18T17:02:43.158Z,173.20
2023-02-18T17:05:20.663Z,328.20
2023-02-18T17:07:52.607Z,355.92
2023-02-18T17:10:19.174Z,314.88
2023-02-18T17:12:45.607Z,300.77
2023-02-18T17:15:12.516Z,416.67
2023-02-18T17:17:38.905Z,498.80
2023-02-18T17:20:05.177Z,488.90
2023-02-18T17:22:31.477Z,483.95
2023-02-18T17:24:58.176Z,450.35
2023-02-18T17:27:24.619Z,426.88
2023-02-18T17:29:50.983Z,423.00
2023-02-18T17:32:18.236Z,402.77
2023-02-18T17:34:45.087Z,384.70
2023-02-18T17:37:12.073Z,380.08
2023-02-18T17:39:38.582Z,369.30
2023-02-18T17:42:05.131Z,358.80
2023-02-18T17:44:31.692Z,496.10
2023-02-18T17:46:58.423Z,494.40
2023-02-18T17:49:24.789Z,465.05
2023-02-18T17:51:51.137Z,446.85
2023-02-18T17:54:18.327Z,436.17
2023-02-18T17:56:45.335Z,428.40
2023-02-18T17:59:12.297Z,412.50
2023-02-18T18:01:39.086Z,403.08
2023-02-18T18:04:05.771Z,394.17
2023-02-18T18:06:32.139Z,394.60
2023-02-18T18:08:58.528Z,557.35
2023-02-18T18:11:24.902Z,602.70
2023-02-18T18:13:51.232Z,553.28
2023-02-18T18:16:17.640Z,523.15
2023-02-18T18:18:44.063Z,489.00
2023-02-18T18:21:10.680Z,645.22
2023-02-18T18:23:37.184Z,634.10
2023-02-18T18:26:03.470Z,593.85
2023-02-18T18:28:31.849Z,556.53
2023-02-18T18:30:59.833Z,529.60
2023-02-18T18:33:26.147Z,510.63
2023-02-18T18:35:52.542Z,490.33
2023-02-18T18:38:18.829Z,477.55
2023-02-18T18:40:45.127Z,462.60
2023-02-18T18:43:11.640Z,456.23
2023-02-18T18:45:38.145Z,445.92
2023-02-18T18:48:05.175Z,437.55
2023-02-18T18:50:31.545Z,426.70
2023-02-18T18:52:57.834Z,419.50
2023-02-18T18:55:24.163Z,405.10
2023-02-18T18:57:51.103Z,404.00
2023-02-18T19:00:17.509Z,389.50
2023-02-18T19:02:43.870Z,384.45
2023-02-18T19:05:10.296Z,370.60
2023-02-18T19:07:36.674Z,371.33
2023-02-18T19:10:03.007Z,365.42
2023-02-18T19:12:29.744Z,356.23
2023-02-18T19:14:56.054Z,361.88
2023-02-18T19:17:22.612Z,344.15
2023-02-18T19:19:48.973Z,343.02
2023-02-18T19:22:15.411Z,335.33
2023-02-18T19:24:41.772Z,335.83
2023-02-18T19:27:08.153Z,329.38
2023-02-18T19:29:34.691Z,315.02
2023-02-18T19:32:01.312Z,314.17
2023-02-18T19:34:27.788Z,310.38
2023-02-18T19:36:54.160Z,307.05
2023-02-18T19:39:21.089Z,299.58
2023-02-18T19:41:47.468Z,287.05
2023-02-18T19:44:13.898Z,289.13
2023-02-18T19:46:40.460Z,283.90
2023-02-18T19:49:07.501Z,276.80
2023-02-18T19:51:33.855Z,267.20
2023-02-18T19:54:00.158Z,265.17
2023-02-18T19:56:27.524Z,264.90
2023-02-18T19:58:53.900Z,260.65
2023-02-18T20:01:20.263Z,254.90
2023-02-18T20:03:46.955Z,244.20
2023-02-18T20:06:13.515Z,243.57
2023-02-18T20:08:39.846Z,234.93
2023-02-18T20:11:06.362Z,233.68
2023-02-18T20:13:32.700Z,226.70
2023-02-18T20:15:59.111Z,227.55
2023-02-18T20:18:25.499Z,222.43
2023-02-18T20:20:51.946Z,217.32
2023-02-18T20:23:18.497Z,215.23
2023-02-18T20:25:44.865Z,210.23
2023-02-18T20:28:11.451Z,204.35
2023-02-18T20:30:37.794Z,206.60
2023-02-18T20:33:04.337Z,198.93
2023-02-18T20:35:30.689Z,193.35
2023-02-18T20:37:57.425Z,192.57
2023-02-18T20:40:23.798Z,188.82
2023-02-18T20:42:50.258Z,190.73
2023-02-18T20:45:16.696Z,183.27
2023-02-18T20:47:43.308Z,178.90
2023-02-18T20:50:09.716Z,174.75
2023-02-18T20:52:36.144Z,173.65
2023-02-18T20:55:02.549Z,166.85
2023-02-18T20:57:29.033Z,166.45
2023-02-18T20:59:55.511Z,162.27
2023-02-18T21:02:21.901Z,157.18
2023-02-18T21:04:48.201Z,158.05
2023-02-18T21:07:14.558Z,151.48
2023-02-18T21:09:41.015Z,149.73
2023-02-18T21:12:07.508Z,145.73
2023-02-18T21:14:33.995Z,146.88
2023-02-18T21:17:00.403Z,141.00
2023-02-18T21:19:26.662Z,143.18
2023-02-18T21:21:53.539Z,136.93
2023-02-18T21:24:19.934Z,138.15
2023-02-18T21:26:46.423Z,132.20
2023-02-18T21:29:12.733Z,134.82
2023-02-18T21:31:39.463Z,130.50
2023-02-18T21:34:06.317Z,127.05
2023-02-18T21:36:33.061Z,128.80
2023-02-18T21:38:59.482Z,121.90
2023-02-18T21:41:25.869Z,122.65
2023-02-18T21:43:52.201Z,118.43
2023-02-18T21:46:18.711Z,116.43
2023-02-18T21:48:45.062Z,116.25
2023-02-18T21:51:11.522Z,114.38
2023-02-18T21:53:38.172Z,113.63
2023-02-18T21:56:04.716Z,112.15
2023-02-18T21:58:31.045Z,107.97
2023-02-18T22:00:57.510Z,108.40
2023-02-18T22:03:23.957Z,105.13
2023-02-18T22:05:50.273Z,102.15
2023-02-18T22:08:17.072Z,101.45
2023-02-18T22:10:43.475Z,99.50
2023-02-18T22:13:10.019Z,100.78
2023-02-18T22:15:36.387Z,96.70
2023-02-18T22:18:02.718Z,94.95
2023-02-18T22:20:29.226Z,93.28
2023-02-18T22:22:55.656Z,94.45
2023-02-18T22:25:22.155Z,90.50
2023-02-18T22:27:48.819Z,89.20
2023-02-18T22:30:15.349Z,91.35
2023-02-18T22:32:41.940Z,87.70
2023-02-18T22:35:08.801Z,85.32
2023-02-18T22:37:35.084Z,84.47
2023-02-18T22:40:01.372Z,82.20
2023-02-18T22:42:27.990Z,81.28
2023-02-18T22:44:54.440Z,83.60
2023-02-18T22:47:21.222Z,78.75
2023-02-18T22:49:47.718Z,78.15
2023-02-18T22:52:14.255Z,77.30
2023-02-18T22:54:40.672Z,74.25
2023-02-18T22:57:07.438Z,75.13
2023-02-18T22:59:33.798Z,72.45
2023-02-18T23:02:00.157Z,71.20
2023-02-18T23:04:26.513Z,68.32
2023-02-18T23:06:52.949Z,69.22
2023-02-18T23:09:19.277Z,70.55
2023-02-18T23:11:45.569Z,64.35
2023-02-18T23:14:12.019Z,65.22
2023-02-18T23:16:38.389Z,61.15
2023-02-18T23:19:04.781Z,63.30
2023-02-18T23:21:31.159Z,64.30
2023-02-18T23:23:57.878Z,61.58
2023-02-18T23:26:24.228Z,62.17
2023-02-18T23:28:51.084Z,61.03
2023-02-18T23:31:17.732Z,61.40
2023-02-18T23:33:44.205Z,56.17
2023-02-18T23:36:10.880Z,57.95
2023-02-18T23:38:37.280Z,57.42
2023-02-18T23:41:03.702Z,58.00
2023-02-18T23:43:30.045Z,54.80
2023-02-18T23:45:57.068Z,56.75
2023-02-18T23:48:23.473Z,52.97
2023-02-18T23:50:50.016Z,52.50
2023-02-18T23:53:16.719Z,53.78
2023-02-18T23:55:42.974Z,50.70
2023-02-18T23:58:09.291Z,50.97
